Terminal Aerodrome Forecast
Issued by NWS Glasgow, MT

Home | Current Version | Previous Version | Text Only | Print | Product List | Glossary On
Versions: 1 2 3 4 5 6 7 8 9 10 11 12 13 14 15
000
FTUS45 KGGW 030520
TAFGGW
TAF
KGGW 030520Z 0306/0406 15007KT P6SM FEW070
     FM031100 18007KT 4SM -SN OVC020
     FM031500 20008KT P6SM BKN030
     FM031900 28014G22KT P6SM BKN025
     FM032300 30013G21KT P6SM BKN035
     FM040200 29009KT P6SM SCT040=

USA.gov is the U.S. government's official web portal to all federal, state and local government web resources and services.